85843 UUDD-UUMU
Flight info
| Callsign | 85843 |
|---|---|
| Flight time | 0h 13m |
| Altitude | 7000 |
| Route | K0450A070 DD326 DCT DAZGI DCT GEKLA DCT FUMBU |
| Aircraft | T154/M-SDGIRWY/S |
Departure
| Time | 2026-04-22 16:35 |
|---|---|
| Airport | Domodedovo International Airport (UUDD) |
Arrival
| Time | 2026-04-22 16:49 |
|---|---|
| Airport | Chkalovskiy Air Base (UUMU) |
| Time | Latitude | Longitude | Altitude | Speed | Heading |
|---|---|---|---|---|---|
| 2026-04-22 16:03 | 55.40941 | 37.92132 | 603 ft | 0 kts | 107° |
| 2026-04-22 16:24 | 55.40940 | 37.92140 | 603 ft | 3 kts | 107° |
| 2026-04-22 16:24 | 55.40926 | 37.92225 | 603 ft | 8 kts | 107° |
| 2026-04-22 16:25 | 55.40912 | 37.92304 | 603 ft | 4 kts | 107° |
| 2026-04-22 16:25 | 55.40957 | 37.92426 | 603 ft | 14 kts | 329° |
| 2026-04-22 16:25 | 55.41045 | 37.92314 | 603 ft | 16 kts | 325° |
| 2026-04-22 16:26 | 55.41137 | 37.92203 | 603 ft | 15 kts | 326° |
| 2026-04-22 16:26 | 55.41228 | 37.92094 | 603 ft | 16 kts | 326° |
| 2026-04-22 16:26 | 55.41327 | 37.91976 | 603 ft | 18 kts | 326° |
| 2026-04-22 16:26 | 55.41439 | 37.91843 | 603 ft | 20 kts | 326° |
| 2026-04-22 16:27 | 55.41543 | 37.91718 | 603 ft | 22 kts | 327° |
| 2026-04-22 16:27 | 55.41619 | 37.91497 | 603 ft | 21 kts | 254° |
| 2026-04-22 16:27 | 55.41542 | 37.91280 | 603 ft | 20 kts | 235° |
| 2026-04-22 16:27 | 55.41466 | 37.91099 | 603 ft | 16 kts | 227° |
| 2026-04-22 16:28 | 55.41401 | 37.90951 | 603 ft | 14 kts | 235° |
| 2026-04-22 16:28 | 55.41322 | 37.90914 | 603 ft | 12 kts | 163° |
| 2026-04-22 16:28 | 55.41247 | 37.90878 | 603 ft | 11 kts | 233° |
| 2026-04-22 16:28 | 55.41204 | 37.90765 | 603 ft | 10 kts | 236° |
| 2026-04-22 16:29 | 55.41161 | 37.90654 | 603 ft | 11 kts | 236° |
| 2026-04-22 16:29 | 55.41116 | 37.90536 | 603 ft | 12 kts | 236° |
| 2026-04-22 16:29 | 55.41063 | 37.90400 | 603 ft | 14 kts | 235° |
| 2026-04-22 16:29 | 55.41032 | 37.90221 | 603 ft | 16 kts | 251° |
| 2026-04-22 16:30 | 55.40970 | 37.90039 | 603 ft | 18 kts | 236° |
| 2026-04-22 16:30 | 55.40894 | 37.89841 | 603 ft | 20 kts | 236° |
| 2026-04-22 16:30 | 55.40815 | 37.89641 | 603 ft | 17 kts | 230° |
| 2026-04-22 16:30 | 55.40729 | 37.89508 | 603 ft | 15 kts | 236° |
| 2026-04-22 16:31 | 55.40663 | 37.89364 | 603 ft | 14 kts | 205° |
| 2026-04-22 16:31 | 55.40572 | 37.89418 | 603 ft | 14 kts | 145° |
| 2026-04-22 16:31 | 55.40485 | 37.89524 | 603 ft | 16 kts | 145° |
| 2026-04-22 16:31 | 55.40385 | 37.89643 | 603 ft | 19 kts | 146° |
| 2026-04-22 16:32 | 55.40265 | 37.89787 | 603 ft | 22 kts | 146° |
| 2026-04-22 16:32 | 55.39822 | 37.90321 | 603 ft | 23 kts | 146° |
| 2026-04-22 16:33 | 55.39705 | 37.90461 | 603 ft | 17 kts | 146° |
| 2026-04-22 16:33 | 55.39614 | 37.90523 | 603 ft | 13 kts | 199° |
| 2026-04-22 16:33 | 55.39549 | 37.90388 | 603 ft | 16 kts | 252° |
| 2026-04-22 16:33 | 55.39573 | 37.90258 | 603 ft | 10 kts | 325° |
| 2026-04-22 16:34 | 55.39582 | 37.90246 | 603 ft | 0 kts | 326° |
| 2026-04-22 16:34 | 55.39583 | 37.90245 | 603 ft | 1 kts | 326° |
| 2026-04-22 16:34 | 55.39717 | 37.90084 | 603 ft | 56 kts | 325° |
| 2026-04-22 16:35 | 55.40234 | 37.89456 | 603 ft | 123 kts | 326° |
| 2026-04-22 16:35 | 55.40850 | 37.88729 | 670 ft | 158 kts | 324° |
| 2026-04-22 16:35 | 55.41806 | 37.87606 | 1255 ft | 168 kts | 322° |
| 2026-04-22 16:35 | 55.42696 | 37.86338 | 1881 ft | 178 kts | 308° |
| 2026-04-22 16:36 | 55.43594 | 37.84531 | 2130 ft | 219 kts | 307° |
| 2026-04-22 16:36 | 55.44686 | 37.82265 | 2429 ft | 258 kts | 307° |
| 2026-04-22 16:36 | 55.45879 | 37.79741 | 3101 ft | 278 kts | 307° |
| 2026-04-22 16:36 | 55.47299 | 37.77375 | 3937 ft | 293 kts | 325° |
| 2026-04-22 16:37 | 55.49191 | 37.76033 | 4947 ft | 298 kts | 341° |
| 2026-04-22 16:37 | 55.51085 | 37.75071 | 5935 ft | 285 kts | 345° |
| 2026-04-22 16:37 | 55.53001 | 37.75052 | 6599 ft | 270 kts | 11° |
| 2026-04-22 16:37 | 55.54624 | 37.76324 | 7177 ft | 251 kts | 26° |
| 2026-04-22 16:38 | 55.56058 | 37.77829 | 7536 ft | 240 kts | 24° |
| 2026-04-22 16:38 | 55.57532 | 37.79281 | 7615 ft | 245 kts | 25° |
| 2026-04-22 16:38 | 55.59013 | 37.80767 | 7638 ft | 243 kts | 25° |
| 2026-04-22 16:38 | 55.60480 | 37.82240 | 7658 ft | 259 kts | 25° |
| 2026-04-22 16:39 | 55.62108 | 37.83877 | 7688 ft | 275 kts | 25° |
| 2026-04-22 16:39 | 55.63727 | 37.85529 | 7615 ft | 265 kts | 27° |
| 2026-04-22 16:39 | 55.65082 | 37.87610 | 7607 ft | 256 kts | 50° |
| 2026-04-22 16:39 | 55.65831 | 37.90434 | 7537 ft | 263 kts | 78° |
| 2026-04-22 16:40 | 55.66109 | 37.93625 | 7487 ft | 267 kts | 77° |
| 2026-04-22 16:40 | 55.66459 | 37.96841 | 7234 ft | 273 kts | 76° |
| 2026-04-22 16:40 | 55.67256 | 38.03303 | 6705 ft | 269 kts | 74° |
| 2026-04-22 16:41 | 55.67672 | 38.06504 | 6339 ft | 270 kts | 74° |
| 2026-04-22 16:41 | 55.68096 | 38.09724 | 5970 ft | 270 kts | 74° |
| 2026-04-22 16:41 | 55.68527 | 38.12982 | 5608 ft | 270 kts | 74° |
| 2026-04-22 16:41 | 55.68951 | 38.16180 | 5258 ft | 269 kts | 75° |
| 2026-04-22 16:42 | 55.69374 | 38.19371 | 4914 ft | 268 kts | 74° |
| 2026-04-22 16:42 | 55.69794 | 38.22540 | 4540 ft | 257 kts | 75° |
| 2026-04-22 16:42 | 55.70190 | 38.25535 | 4140 ft | 248 kts | 75° |
| 2026-04-22 16:42 | 55.70621 | 38.28427 | 3727 ft | 242 kts | 62° |
| 2026-04-22 16:43 | 55.71606 | 38.30728 | 3384 ft | 231 kts | 30° |
| 2026-04-22 16:43 | 55.73049 | 38.31797 | 3083 ft | 230 kts | 3° |
| 2026-04-22 16:43 | 55.74639 | 38.31704 | 2893 ft | 226 kts | 343° |
| 2026-04-22 16:43 | 55.75935 | 38.30750 | 2981 ft | 187 kts | 314° |
| 2026-04-22 16:44 | 55.76822 | 38.29176 | 2854 ft | 171 kts | 308° |
| 2026-04-22 16:44 | 55.77586 | 38.27700 | 2888 ft | 155 kts | 306° |
| 2026-04-22 16:44 | 55.78233 | 38.26293 | 2822 ft | 136 kts | 303° |
| 2026-04-22 16:44 | 55.78785 | 38.24982 | 2550 ft | 135 kts | 300° |
| 2026-04-22 16:45 | 55.79364 | 38.23609 | 2308 ft | 142 kts | 303° |
| 2026-04-22 16:45 | 55.80000 | 38.22317 | 2265 ft | 136 kts | 308° |
| 2026-04-22 16:45 | 55.80051 | 38.22223 | 2261 ft | 136 kts | 308° |
| 2026-04-22 16:45 | 55.80394 | 38.21584 | 2216 ft | 132 kts | 308° |
| 2026-04-22 16:46 | 55.81005 | 38.20351 | 2116 ft | 139 kts | 304° |
| 2026-04-22 16:46 | 55.81637 | 38.18972 | 2057 ft | 148 kts | 303° |
| 2026-04-22 16:46 | 55.82279 | 38.17563 | 1918 ft | 144 kts | 305° |
| 2026-04-22 16:46 | 55.82898 | 38.16230 | 1681 ft | 138 kts | 305° |
| 2026-04-22 16:47 | 55.83525 | 38.14908 | 1425 ft | 142 kts | 305° |
| 2026-04-22 16:47 | 55.84162 | 38.13570 | 1235 ft | 140 kts | 307° |
| 2026-04-22 16:47 | 55.84587 | 38.12708 | 1103 ft | 140 kts | 308° |
| 2026-04-22 16:47 | 55.85414 | 38.10987 | 909 ft | 138 kts | 306° |
| 2026-04-22 16:48 | 55.86035 | 38.09673 | 735 ft | 140 kts | 308° |
| 2026-04-22 16:48 | 55.86660 | 38.08378 | 573 ft | 139 kts | 308° |
| 2026-04-22 16:48 | 55.87294 | 38.07070 | 512 ft | 136 kts | 308° |
| 2026-04-22 16:48 | 55.87822 | 38.05970 | 510 ft | 87 kts | 308° |
| 2026-04-22 16:49 | 55.88147 | 38.05290 | 510 ft | 60 kts | 310° |
| 2026-04-22 16:49 | 55.88319 | 38.04937 | 510 ft | 30 kts | 310° |
| 2026-04-22 16:49 | 55.88418 | 38.04721 | 510 ft | 18 kts | 310° |
| 2026-04-22 16:49 | 55.88499 | 38.04552 | 510 ft | 17 kts | 310° |
| 2026-04-22 16:50 | 55.88577 | 38.04389 | 510 ft | 17 kts | 310° |
| 2026-04-22 16:50 | 55.88654 | 38.04231 | 510 ft | 16 kts | 310° |
| 2026-04-22 16:50 | 55.88725 | 38.04076 | 510 ft | 15 kts | 309° |
| 2026-04-22 16:50 | 55.88788 | 38.03944 | 510 ft | 11 kts | 309° |
| 2026-04-22 16:51 | 55.88802 | 38.03815 | 510 ft | 10 kts | 243° |
| 2026-04-22 16:51 | 55.88744 | 38.03749 | 510 ft | 9 kts | 194° |
| 2026-04-22 16:51 | 55.88678 | 38.03725 | 510 ft | 9 kts | 190° |
| 2026-04-22 16:51 | 55.88631 | 38.03667 | 510 ft | 8 kts | 265° |
| 2026-04-22 16:52 | 55.88639 | 38.03568 | 510 ft | 7 kts | 279° |
| 2026-04-22 16:52 | 55.88647 | 38.03476 | 510 ft | 7 kts | 277° |
| 2026-04-22 16:52 | 55.88650 | 38.03385 | 510 ft | 7 kts | 256° |
| 2026-04-22 16:52 | 55.88613 | 38.03329 | 510 ft | 7 kts | 194° |
| 2026-04-22 16:53 | 55.88556 | 38.03306 | 510 ft | 9 kts | 200° |
| 2026-04-22 16:53 | 55.88494 | 38.03247 | 510 ft | 10 kts | 210° |
| 2026-04-22 16:53 | 55.88418 | 38.03196 | 510 ft | 12 kts | 193° |
| 2026-04-22 16:53 | 55.88328 | 38.03165 | 510 ft | 14 kts | 191° |
| 2026-04-22 16:54 | 55.88225 | 38.03131 | 510 ft | 14 kts | 190° |
| 2026-04-22 16:54 | 55.88177 | 38.03115 | 510 ft | 5 kts | 191° |
| 2026-04-22 16:54 | 55.88125 | 38.03097 | 510 ft | 9 kts | 191° |
| 2026-04-22 16:54 | 55.88050 | 38.03072 | 510 ft | 12 kts | 191° |
| 2026-04-22 16:55 | 55.87964 | 38.03043 | 510 ft | 12 kts | 191° |
| 2026-04-22 16:55 | 55.87912 | 38.03026 | 510 ft | 4 kts | 190° |
| 2026-04-22 16:55 | 55.87902 | 38.03023 | 510 ft | 0 kts | 191° |